sensor_id;sensor_type;location;lat;lon;timestamp;P1;durP1;ratioP1;P2;durP2;ratioP2
81656;SDS011;71067;51.482;-0.580;2024-01-15T00:00:12;4.43;;;2.40;;
81656;SDS011;71067;51.482;-0.580;2024-01-15T00:02:38;5.40;;;2.50;;
81656;SDS011;71067;51.482;-0.580;2024-01-15T00:05:04;4.32;;;2.80;;
81656;SDS011;71067;51.482;-0.580;2024-01-15T00:07:29;5.60;;;2.53;;
81656;SDS011;71067;51.482;-0.580;2024-01-15T00:09:54;5.73;;;2.50;;
81656;SDS011;71067;51.482;-0.580;2024-01-15T00:12:20;4.85;;;2.40;;
81656;SDS011;71067;51.482;-0.580;2024-01-15T00:14:45;3.60;;;2.03;;
81656;SDS011;71067;51.482;-0.580;2024-01-15T00:17:11;3.88;;;2.38;;
81656;SDS011;71067;51.482;-0.580;2024-01-15T00:19:36;4.65;;;2.45;;
81656;SDS011;71067;51.482;-0.580;2024-01-15T00:22:01;3.97;;;2.37;;
81656;SDS011;71067;51.482;-0.580;2024-01-15T00:24:27;4.10;;;2.25;;
81656;SDS011;71067;51.482;-0.580;2024-01-15T00:26:52;4.82;;;2.33;;
81656;SDS011;71067;51.482;-0.580;2024-01-15T00:29:18;5.13;;;2.42;;
81656;SDS011;71067;51.482;-0.580;2024-01-15T00:31:44;4.43;;;2.30;;
81656;SDS011;71067;51.482;-0.580;2024-01-15T00:34:09;5.25;;;2.35;;
81656;SDS011;71067;51.482;-0.580;2024-01-15T00:36:35;5.20;;;2.00;;
81656;SDS011;71067;51.482;-0.580;2024-01-15T00:39:00;5.00;;;3.03;;
81656;SDS011;71067;51.482;-0.580;2024-01-15T00:41:26;3.22;;;2.22;;
81656;SDS011;71067;51.482;-0.580;2024-01-15T00:43:52;4.63;;;2.40;;
81656;SDS011;71067;51.482;-0.580;2024-01-15T00:46:18;3.33;;;2.30;;
81656;SDS011;71067;51.482;-0.580;2024-01-15T00:48:43;4.25;;;2.25;;
81656;SDS011;71067;51.482;-0.580;2024-01-15T00:51:09;4.35;;;2.60;;
81656;SDS011;71067;51.482;-0.580;2024-01-15T00:53:34;2.92;;;1.80;;
81656;SDS011;71067;51.482;-0.580;2024-01-15T00:55:59;5.20;;;2.27;;
81656;SDS011;71067;51.482;-0.580;2024-01-15T00:58:25;4.10;;;2.67;;
81656;SDS011;71067;51.482;-0.580;2024-01-15T01:00:51;4.18;;;2.60;;
81656;SDS011;71067;51.482;-0.580;2024-01-15T01:03:16;4.38;;;2.45;;
81656;SDS011;71067;51.482;-0.580;2024-01-15T01:05:42;3.70;;;2.38;;
81656;SDS011;71067;51.482;-0.580;2024-01-15T01:08:08;4.75;;;2.80;;
81656;SDS011;71067;51.482;-0.580;2024-01-15T01:10:33;4.57;;;2.70;;
81656;SDS011;71067;51.482;-0.580;2024-01-15T01:12:58;4.10;;;2.80;;
81656;SDS011;71067;51.482;-0.580;2024-01-15T01:15:24;4.32;;;2.75;;
81656;SDS011;71067;51.482;-0.580;2024-01-15T01:17:49;3.53;;;2.22;;
81656;SDS011;71067;51.482;-0.580;2024-01-15T01:20:15;3.33;;;2.40;;
81656;SDS011;71067;51.482;-0.580;2024-01-15T01:22:40;4.97;;;2.70;;
81656;SDS011;71067;51.482;-0.580;2024-01-15T01:25:06;3.97;;;2.83;;
81656;SDS011;71067;51.482;-0.580;2024-01-15T01:27:31;4.22;;;2.78;;
81656;SDS011;71067;51.482;-0.580;2024-01-15T01:29:57;5.28;;;2.67;;
81656;SDS011;71067;51.482;-0.580;2024-01-15T01:32:22;4.63;;;2.72;;
81656;SDS011;71067;51.482;-0.580;2024-01-15T01:34:47;5.20;;;3.07;;
81656;SDS011;71067;51.482;-0.580;2024-01-15T01:37:13;4.67;;;2.60;;
81656;SDS011;71067;51.482;-0.580;2024-01-15T01:39:39;3.95;;;2.53;;
81656;SDS011;71067;51.482;-0.580;2024-01-15T01:42:05;4.50;;;2.30;;
81656;SDS011;71067;51.482;-0.580;2024-01-15T01:44:31;4.18;;;2.15;;
81656;SDS011;71067;51.482;-0.580;2024-01-15T01:46:57;5.20;;;2.33;;
81656;SDS011;71067;51.482;-0.580;2024-01-15T01:49:24;4.05;;;2.25;;
81656;SDS011;71067;51.482;-0.580;2024-01-15T01:51:50;3.42;;;2.17;;
81656;SDS011;71067;51.482;-0.580;2024-01-15T01:54:16;4.07;;;2.40;;
81656;SDS011;71067;51.482;-0.580;2024-01-15T01:56:42;5.32;;;2.30;;
81656;SDS011;71067;51.482;-0.580;2024-01-15T01:59:07;5.82;;;2.45;;
81656;SDS011;71067;51.482;-0.580;2024-01-15T02:01:35;3.60;;;2.10;;
81656;SDS011;71067;51.482;-0.580;2024-01-15T02:04:01;3.53;;;2.30;;
81656;SDS011;71067;51.482;-0.580;2024-01-15T02:06:26;5.18;;;2.45;;
81656;SDS011;71067;51.482;-0.580;2024-01-15T02:08:52;5.28;;;2.80;;
81656;SDS011;71067;51.482;-0.580;2024-01-15T02:11:18;4.97;;;2.63;;
81656;SDS011;71067;51.482;-0.580;2024-01-15T02:13:43;4.85;;;2.92;;
81656;SDS011;71067;51.482;-0.580;2024-01-15T02:16:09;4.68;;;2.15;;
81656;SDS011;71067;51.482;-0.580;2024-01-15T02:18:41;3.03;;;2.10;;
81656;SDS011;71067;51.482;-0.580;2024-01-15T02:21:10;4.82;;;2.35;;
81656;SDS011;71067;51.482;-0.580;2024-01-15T02:23:36;5.20;;;2.28;;
81656;SDS011;71067;51.482;-0.580;2024-01-15T02:26:02;5.13;;;2.75;;
81656;SDS011;71067;51.482;-0.580;2024-01-15T02:28:28;4.47;;;2.90;;
81656;SDS011;71067;51.482;-0.580;2024-01-15T02:30:54;4.57;;;2.67;;
81656;SDS011;71067;51.482;-0.580;2024-01-15T02:33:19;4.97;;;2.60;;
81656;SDS011;71067;51.482;-0.580;2024-01-15T02:35:44;6.20;;;2.70;;
81656;SDS011;71067;51.482;-0.580;2024-01-15T02:38:11;3.80;;;2.20;;
81656;SDS011;71067;51.482;-0.580;2024-01-15T02:40:37;5.10;;;2.60;;
81656;SDS011;71067;51.482;-0.580;2024-01-15T02:43:03;5.57;;;2.90;;
81656;SDS011;71067;51.482;-0.580;2024-01-15T02:45:29;4.40;;;2.50;;
81656;SDS011;71067;51.482;-0.580;2024-01-15T02:47:54;4.63;;;2.70;;
81656;SDS011;71067;51.482;-0.580;2024-01-15T02:50:20;6.20;;;2.80;;
81656;SDS011;71067;51.482;-0.580;2024-01-15T02:52:45;4.87;;;2.67;;
81656;SDS011;71067;51.482;-0.580;2024-01-15T02:55:10;3.75;;;2.53;;
81656;SDS011;71067;51.482;-0.580;2024-01-15T02:57:36;4.93;;;2.50;;
81656;SDS011;71067;51.482;-0.580;2024-01-15T03:00:01;5.67;;;2.80;;
81656;SDS011;71067;51.482;-0.580;2024-01-15T03:02:27;4.65;;;2.92;;
81656;SDS011;71067;51.482;-0.580;2024-01-15T03:04:53;4.83;;;2.57;;
81656;SDS011;71067;51.482;-0.580;2024-01-15T03:07:18;5.50;;;3.00;;
81656;SDS011;71067;51.482;-0.580;2024-01-15T03:09:44;4.45;;;2.47;;
81656;SDS011;71067;51.482;-0.580;2024-01-15T03:12:09;5.63;;;2.85;;
81656;SDS011;71067;51.482;-0.580;2024-01-15T03:14:36;6.53;;;2.95;;
81656;SDS011;71067;51.482;-0.580;2024-01-15T03:17:01;4.55;;;2.70;;
81656;SDS011;71067;51.482;-0.580;2024-01-15T03:19:26;4.78;;;2.40;;
81656;SDS011;71067;51.482;-0.580;2024-01-15T03:21:52;5.37;;;2.70;;
81656;SDS011;71067;51.482;-0.580;2024-01-15T03:24:17;5.80;;;2.58;;
81656;SDS011;71067;51.482;-0.580;2024-01-15T03:26:42;4.95;;;2.70;;
81656;SDS011;71067;51.482;-0.580;2024-01-15T03:29:08;6.63;;;2.80;;
81656;SDS011;71067;51.482;-0.580;2024-01-15T03:31:33;5.38;;;2.60;;
81656;SDS011;71067;51.482;-0.580;2024-01-15T03:33:59;4.47;;;2.30;;
81656;SDS011;71067;51.482;-0.580;2024-01-15T03:36:24;6.85;;;2.70;;
81656;SDS011;71067;51.482;-0.580;2024-01-15T03:38:49;5.72;;;3.10;;
81656;SDS011;71067;51.482;-0.580;2024-01-15T03:41:15;5.38;;;3.05;;
81656;SDS011;71067;51.482;-0.580;2024-01-15T03:43:40;3.93;;;2.40;;
81656;SDS011;71067;51.482;-0.580;2024-01-15T03:46:05;5.20;;;2.67;;
81656;SDS011;71067;51.482;-0.580;2024-01-15T03:48:31;5.10;;;2.85;;
81656;SDS011;71067;51.482;-0.580;2024-01-15T03:50:57;5.17;;;2.50;;
81656;SDS011;71067;51.482;-0.580;2024-01-15T03:53:22;5.80;;;2.37;;
81656;SDS011;71067;51.482;-0.580;2024-01-15T03:55:48;5.65;;;2.45;;
81656;SDS011;71067;51.482;-0.580;2024-01-15T03:58:13;5.88;;;2.67;;
81656;SDS011;71067;51.482;-0.580;2024-01-15T04:00:40;4.13;;;2.28;;
81656;SDS011;71067;51.482;-0.580;2024-01-15T04:03:05;5.70;;;2.83;;
81656;SDS011;71067;51.482;-0.580;2024-01-15T04:05:31;3.55;;;2.10;;
81656;SDS011;71067;51.482;-0.580;2024-01-15T04:07:56;6.32;;;2.63;;
81656;SDS011;71067;51.482;-0.580;2024-01-15T04:10:21;3.57;;;2.10;;
81656;SDS011;71067;51.482;-0.580;2024-01-15T04:12:47;3.72;;;2.33;;
81656;SDS011;71067;51.482;-0.580;2024-01-15T04:15:12;4.45;;;2.40;;
81656;SDS011;71067;51.482;-0.580;2024-01-15T04:17:38;5.18;;;2.70;;
81656;SDS011;71067;51.482;-0.580;2024-01-15T04:20:03;5.35;;;2.20;;
81656;SDS011;71067;51.482;-0.580;2024-01-15T04:22:29;5.05;;;2.35;;
81656;SDS011;71067;51.482;-0.580;2024-01-15T04:24:54;4.33;;;2.10;;
81656;SDS011;71067;51.482;-0.580;2024-01-15T04:27:19;5.05;;;2.20;;
81656;SDS011;71067;51.482;-0.580;2024-01-15T04:29:45;6.43;;;2.28;;
81656;SDS011;71067;51.482;-0.580;2024-01-15T04:32:10;4.35;;;2.42;;
81656;SDS011;71067;51.482;-0.580;2024-01-15T04:34:36;3.95;;;2.00;;
81656;SDS011;71067;51.482;-0.580;2024-01-15T04:37:01;3.53;;;2.20;;
81656;SDS011;71067;51.482;-0.580;2024-01-15T04:39:26;4.63;;;2.30;;
81656;SDS011;71067;51.482;-0.580;2024-01-15T04:41:52;3.65;;;2.00;;
81656;SDS011;71067;51.482;-0.580;2024-01-15T04:44:18;3.95;;;1.92;;
81656;SDS011;71067;51.482;-0.580;2024-01-15T04:46:43;4.80;;;2.15;;
81656;SDS011;71067;51.482;-0.580;2024-01-15T04:49:09;3.28;;;1.85;;
81656;SDS011;71067;51.482;-0.580;2024-01-15T04:51:34;4.63;;;1.85;;
81656;SDS011;71067;51.482;-0.580;2024-01-15T04:54:00;3.33;;;1.70;;
81656;SDS011;71067;51.482;-0.580;2024-01-15T04:56:25;4.25;;;1.70;;
81656;SDS011;71067;51.482;-0.580;2024-01-15T04:58:51;3.40;;;1.63;;
81656;SDS011;71067;51.482;-0.580;2024-01-15T05:01:16;4.43;;;1.90;;
81656;SDS011;71067;51.482;-0.580;2024-01-15T05:03:42;3.17;;;1.75;;
81656;SDS011;71067;51.482;-0.580;2024-01-15T05:06:07;3.55;;;1.80;;
81656;SDS011;71067;51.482;-0.580;2024-01-15T05:08:33;4.85;;;2.22;;
81656;SDS011;71067;51.482;-0.580;2024-01-15T05:10:58;3.63;;;1.90;;
81656;SDS011;71067;51.482;-0.580;2024-01-15T05:13:23;3.08;;;1.70;;
81656;SDS011;71067;51.482;-0.580;2024-01-15T05:15:49;3.80;;;1.90;;
81656;SDS011;71067;51.482;-0.580;2024-01-15T05:18:14;2.97;;;1.70;;
81656;SDS011;71067;51.482;-0.580;2024-01-15T05:20:39;2.92;;;1.92;;
81656;SDS011;71067;51.482;-0.580;2024-01-15T05:23:04;2.37;;;1.40;;
81656;SDS011;71067;51.482;-0.580;2024-01-15T05:25:30;3.17;;;1.50;;
81656;SDS011;71067;51.482;-0.580;2024-01-15T05:27:55;3.45;;;1.90;;
81656;SDS011;71067;51.482;-0.580;2024-01-15T05:30:21;4.57;;;1.77;;
81656;SDS011;71067;51.482;-0.580;2024-01-15T05:32:46;3.63;;;1.90;;
81656;SDS011;71067;51.482;-0.580;2024-01-15T05:35:11;3.80;;;1.70;;
81656;SDS011;71067;51.482;-0.580;2024-01-15T05:37:38;3.00;;;1.52;;
81656;SDS011;71067;51.482;-0.580;2024-01-15T05:40:05;3.72;;;1.90;;
81656;SDS011;71067;51.482;-0.580;2024-01-15T05:42:30;3.13;;;1.50;;
81656;SDS011;71067;51.482;-0.580;2024-01-15T05:44:57;2.85;;;1.52;;
81656;SDS011;71067;51.482;-0.580;2024-01-15T05:47:24;3.70;;;1.70;;
81656;SDS011;71067;51.482;-0.580;2024-01-15T05:49:49;3.10;;;1.63;;
81656;SDS011;71067;51.482;-0.580;2024-01-15T05:52:15;3.42;;;1.50;;
81656;SDS011;71067;51.482;-0.580;2024-01-15T05:54:41;3.40;;;1.77;;
81656;SDS011;71067;51.482;-0.580;2024-01-15T05:57:06;3.58;;;1.52;;
81656;SDS011;71067;51.482;-0.580;2024-01-15T05:59:31;5.37;;;1.70;;
81656;SDS011;71067;51.482;-0.580;2024-01-15T06:01:59;2.90;;;1.50;;
81656;SDS011;71067;51.482;-0.580;2024-01-15T06:04:24;3.58;;;1.70;;
81656;SDS011;71067;51.482;-0.580;2024-01-15T06:06:49;3.07;;;1.33;;
81656;SDS011;71067;51.482;-0.580;2024-01-15T06:09:15;4.20;;;1.53;;
81656;SDS011;71067;51.482;-0.580;2024-01-15T06:11:40;3.15;;;1.52;;
81656;SDS011;71067;51.482;-0.580;2024-01-15T06:14:05;2.97;;;1.50;;
81656;SDS011;71067;51.482;-0.580;2024-01-15T06:16:31;3.63;;;1.67;;
81656;SDS011;71067;51.482;-0.580;2024-01-15T06:18:56;4.90;;;1.70;;
81656;SDS011;71067;51.482;-0.580;2024-01-15T06:21:21;3.53;;;1.73;;
81656;SDS011;71067;51.482;-0.580;2024-01-15T06:23:47;5.18;;;1.85;;
81656;SDS011;71067;51.482;-0.580;2024-01-15T06:26:12;4.03;;;1.60;;
81656;SDS011;71067;51.482;-0.580;2024-01-15T06:28:37;2.67;;;1.60;;
81656;SDS011;71067;51.482;-0.580;2024-01-15T06:31:03;4.20;;;1.50;;
81656;SDS011;71067;51.482;-0.580;2024-01-15T06:33:28;2.85;;;1.48;;
81656;SDS011;71067;51.482;-0.580;2024-01-15T06:35:54;2.77;;;1.63;;
81656;SDS011;71067;51.482;-0.580;2024-01-15T06:38:19;3.00;;;1.70;;
81656;SDS011;71067;51.482;-0.580;2024-01-15T06:40:44;3.45;;;1.55;;
81656;SDS011;71067;51.482;-0.580;2024-01-15T06:43:13;4.88;;;1.40;;
81656;SDS011;71067;51.482;-0.580;2024-01-15T06:45:39;2.53;;;1.30;;
81656;SDS011;71067;51.482;-0.580;2024-01-15T06:48:05;5.20;;;1.40;;
81656;SDS011;71067;51.482;-0.580;2024-01-15T06:50:30;3.72;;;1.60;;
81656;SDS011;71067;51.482;-0.580;2024-01-15T06:52:56;2.75;;;1.40;;
81656;SDS011;71067;51.482;-0.580;2024-01-15T06:55:21;3.37;;;1.80;;
81656;SDS011;71067;51.482;-0.580;2024-01-15T06:57:46;3.17;;;1.40;;
81656;SDS011;71067;51.482;-0.580;2024-01-15T07:00:12;3.45;;;1.38;;
81656;SDS011;71067;51.482;-0.580;2024-01-15T07:02:38;3.80;;;1.58;;
81656;SDS011;71067;51.482;-0.580;2024-01-15T07:05:03;2.05;;;1.23;;
81656;SDS011;71067;51.482;-0.580;2024-01-15T07:07:30;2.63;;;1.27;;
81656;SDS011;71067;51.482;-0.580;2024-01-15T07:09:56;2.78;;;1.30;;
81656;SDS011;71067;51.482;-0.580;2024-01-15T07:12:21;2.60;;;1.60;;
81656;SDS011;71067;51.482;-0.580;2024-01-15T07:14:47;4.63;;;1.67;;
81656;SDS011;71067;51.482;-0.580;2024-01-15T07:17:13;4.57;;;1.50;;
81656;SDS011;71067;51.482;-0.580;2024-01-15T07:19:39;3.25;;;1.70;;
81656;SDS011;71067;51.482;-0.580;2024-01-15T07:22:04;4.37;;;1.50;;
81656;SDS011;71067;51.482;-0.580;2024-01-15T07:24:29;2.67;;;1.10;;
81656;SDS011;71067;51.482;-0.580;2024-01-15T07:26:55;2.75;;;1.58;;
81656;SDS011;71067;51.482;-0.580;2024-01-15T07:29:20;3.97;;;1.88;;
81656;SDS011;71067;51.482;-0.580;2024-01-15T07:31:51;2.72;;;1.50;;
81656;SDS011;71067;51.482;-0.580;2024-01-15T07:34:17;4.50;;;1.58;;
81656;SDS011;71067;51.482;-0.580;2024-01-15T07:36:45;2.13;;;1.02;;
81656;SDS011;71067;51.482;-0.580;2024-01-15T07:39:11;3.40;;;1.60;;
81656;SDS011;71067;51.482;-0.580;2024-01-15T07:41:37;3.28;;;1.50;;
81656;SDS011;71067;51.482;-0.580;2024-01-15T07:44:02;4.82;;;1.60;;
81656;SDS011;71067;51.482;-0.580;2024-01-15T07:46:28;2.05;;;1.20;;
81656;SDS011;71067;51.482;-0.580;2024-01-15T07:48:53;2.67;;;1.52;;
81656;SDS011;71067;51.482;-0.580;2024-01-15T07:51:24;4.40;;;1.80;;
81656;SDS011;71067;51.482;-0.580;2024-01-15T07:53:52;2.42;;;1.30;;
81656;SDS011;71067;51.482;-0.580;2024-01-15T07:56:18;3.40;;;1.27;;
81656;SDS011;71067;51.482;-0.580;2024-01-15T07:58:44;3.58;;;1.30;;
81656;SDS011;71067;51.482;-0.580;2024-01-15T08:01:09;3.08;;;1.20;;
81656;SDS011;71067;51.482;-0.580;2024-01-15T08:03:34;3.70;;;1.52;;
81656;SDS011;71067;51.482;-0.580;2024-01-15T08:06:00;2.57;;;1.00;;
81656;SDS011;71067;51.482;-0.580;2024-01-15T08:08:25;3.30;;;1.30;;
81656;SDS011;71067;51.482;-0.580;2024-01-15T08:10:52;3.70;;;1.40;;
81656;SDS011;71067;51.482;-0.580;2024-01-15T08:13:18;2.72;;;1.20;;
81656;SDS011;71067;51.482;-0.580;2024-01-15T08:15:43;2.25;;;1.17;;
81656;SDS011;71067;51.482;-0.580;2024-01-15T08:18:08;3.47;;;1.38;;
81656;SDS011;71067;51.482;-0.580;2024-01-15T08:20:34;4.80;;;1.40;;
81656;SDS011;71067;51.482;-0.580;2024-01-15T08:22:59;5.32;;;1.35;;
81656;SDS011;71067;51.482;-0.580;2024-01-15T08:25:25;3.97;;;1.33;;
81656;SDS011;71067;51.482;-0.580;2024-01-15T08:27:51;5.25;;;1.30;;
81656;SDS011;71067;51.482;-0.580;2024-01-15T08:30:16;2.15;;;1.27;;
81656;SDS011;71067;51.482;-0.580;2024-01-15T08:32:43;3.95;;;1.45;;
81656;SDS011;71067;51.482;-0.580;2024-01-15T08:35:09;2.63;;;1.20;;
81656;SDS011;71067;51.482;-0.580;2024-01-15T08:37:35;2.65;;;1.38;;
81656;SDS011;71067;51.482;-0.580;2024-01-15T08:40:00;5.18;;;1.98;;
81656;SDS011;71067;51.482;-0.580;2024-01-15T08:42:26;5.93;;;1.50;;
81656;SDS011;71067;51.482;-0.580;2024-01-15T08:44:51;4.43;;;1.50;;
81656;SDS011;71067;51.482;-0.580;2024-01-15T08:47:16;3.15;;;1.50;;
81656;SDS011;71067;51.482;-0.580;2024-01-15T08:49:42;4.90;;;1.73;;
81656;SDS011;71067;51.482;-0.580;2024-01-15T08:52:09;3.40;;;1.75;;
81656;SDS011;71067;51.482;-0.580;2024-01-15T08:54:34;4.25;;;2.00;;
81656;SDS011;71067;51.482;-0.580;2024-01-15T08:57:00;4.75;;;2.13;;
81656;SDS011;71067;51.482;-0.580;2024-01-15T08:59:25;4.35;;;2.00;;
81656;SDS011;71067;51.482;-0.580;2024-01-15T09:01:54;4.72;;;2.30;;
81656;SDS011;71067;51.482;-0.580;2024-01-15T09:04:22;4.10;;;1.98;;
81656;SDS011;71067;51.482;-0.580;2024-01-15T09:06:47;3.75;;;2.20;;
81656;SDS011;71067;51.482;-0.580;2024-01-15T09:09:13;5.05;;;1.92;;
81656;SDS011;71067;51.482;-0.580;2024-01-15T09:11:41;4.63;;;2.10;;
81656;SDS011;71067;51.482;-0.580;2024-01-15T09:14:07;4.20;;;2.10;;
81656;SDS011;71067;51.482;-0.580;2024-01-15T09:16:33;3.78;;;2.15;;
81656;SDS011;71067;51.482;-0.580;2024-01-15T09:18:58;5.53;;;3.72;;
81656;SDS011;71067;51.482;-0.580;2024-01-15T09:21:24;5.95;;;2.38;;
81656;SDS011;71067;51.482;-0.580;2024-01-15T09:23:50;5.15;;;2.10;;
81656;SDS011;71067;51.482;-0.580;2024-01-15T09:26:15;5.28;;;2.38;;
81656;SDS011;71067;51.482;-0.580;2024-01-15T09:28:41;7.60;;;3.30;;
81656;SDS011;71067;51.482;-0.580;2024-01-15T09:31:07;4.47;;;2.67;;
81656;SDS011;71067;51.482;-0.580;2024-01-15T09:33:32;5.55;;;2.75;;
81656;SDS011;71067;51.482;-0.580;2024-01-15T09:36:00;4.93;;;2.88;;
81656;SDS011;71067;51.482;-0.580;2024-01-15T09:38:26;5.00;;;2.92;;
81656;SDS011;71067;51.482;-0.580;2024-01-15T09:40:52;6.37;;;2.97;;
81656;SDS011;71067;51.482;-0.580;2024-01-15T09:43:17;6.57;;;3.30;;
81656;SDS011;71067;51.482;-0.580;2024-01-15T09:45:43;7.28;;;2.83;;
81656;SDS011;71067;51.482;-0.580;2024-01-15T09:48:09;8.95;;;4.15;;
81656;SDS011;71067;51.482;-0.580;2024-01-15T09:50:34;7.65;;;3.53;;
81656;SDS011;71067;51.482;-0.580;2024-01-15T09:53:00;7.80;;;2.97;;
81656;SDS011;71067;51.482;-0.580;2024-01-15T09:55:26;7.38;;;3.33;;
81656;SDS011;71067;51.482;-0.580;2024-01-15T09:57:51;3.97;;;2.15;;
81656;SDS011;71067;51.482;-0.580;2024-01-15T10:00:19;5.05;;;2.15;;
81656;SDS011;71067;51.482;-0.580;2024-01-15T10:02:45;5.22;;;1.83;;
81656;SDS011;71067;51.482;-0.580;2024-01-15T10:05:10;4.82;;;1.92;;
81656;SDS011;71067;51.482;-0.580;2024-01-15T10:07:36;4.70;;;1.90;;
81656;SDS011;71067;51.482;-0.580;2024-01-15T10:10:03;5.63;;;1.83;;
81656;SDS011;71067;51.482;-0.580;2024-01-15T10:12:29;3.65;;;1.70;;
81656;SDS011;71067;51.482;-0.580;2024-01-15T10:14:55;4.90;;;1.75;;
81656;SDS011;71067;51.482;-0.580;2024-01-15T10:17:21;4.15;;;1.40;;
81656;SDS011;71067;51.482;-0.580;2024-01-15T10:19:46;5.07;;;1.50;;
81656;SDS011;71067;51.482;-0.580;2024-01-15T10:22:13;4.38;;;1.52;;
81656;SDS011;71067;51.482;-0.580;2024-01-15T10:24:40;2.78;;;1.25;;
81656;SDS011;71067;51.482;-0.580;2024-01-15T10:27:06;2.95;;;1.30;;
81656;SDS011;71067;51.482;-0.580;2024-01-15T10:29:34;2.75;;;1.05;;
81656;SDS011;71067;51.482;-0.580;2024-01-15T10:32:00;3.42;;;1.10;;
81656;SDS011;71067;51.482;-0.580;2024-01-15T10:34:26;2.88;;;1.10;;
81656;SDS011;71067;51.482;-0.580;2024-01-15T10:36:51;2.90;;;1.05;;
81656;SDS011;71067;51.482;-0.580;2024-01-15T10:39:23;3.88;;;1.00;;
81656;SDS011;71067;51.482;-0.580;2024-01-15T10:41:49;3.88;;;0.95;;
81656;SDS011;71067;51.482;-0.580;2024-01-15T10:44:15;3.22;;;0.93;;
81656;SDS011;71067;51.482;-0.580;2024-01-15T10:46:44;2.88;;;0.90;;
81656;SDS011;71067;51.482;-0.580;2024-01-15T10:49:11;2.30;;;0.70;;
81656;SDS011;71067;51.482;-0.580;2024-01-15T10:51:36;2.00;;;0.93;;
81656;SDS011;71067;51.482;-0.580;2024-01-15T10:54:02;2.28;;;0.90;;
81656;SDS011;71067;51.482;-0.580;2024-01-15T10:56:30;5.00;;;0.90;;
81656;SDS011;71067;51.482;-0.580;2024-01-15T10:58:58;1.95;;;0.95;;
81656;SDS011;71067;51.482;-0.580;2024-01-15T11:01:24;5.80;;;1.35;;
81656;SDS011;71067;51.482;-0.580;2024-01-15T11:03:50;1.65;;;0.68;;
81656;SDS011;71067;51.482;-0.580;2024-01-15T11:06:16;3.88;;;0.75;;
81656;SDS011;71067;51.482;-0.580;2024-01-15T11:08:48;2.80;;;0.70;;
81656;SDS011;71067;51.482;-0.580;2024-01-15T11:11:18;2.05;;;0.60;;
81656;SDS011;71067;51.482;-0.580;2024-01-15T11:13:45;3.63;;;0.90;;
81656;SDS011;71067;51.482;-0.580;2024-01-15T11:16:12;5.93;;;1.08;;
81656;SDS011;71067;51.482;-0.580;2024-01-15T11:21:22;3.08;;;0.90;;
81656;SDS011;71067;51.482;-0.580;2024-01-15T11:28:52;1.73;;;0.65;;
81656;SDS011;71067;51.482;-0.580;2024-01-15T11:31:17;2.10;;;0.73;;
81656;SDS011;71067;51.482;-0.580;2024-01-15T11:33:49;1.20;;;0.50;;
81656;SDS011;71067;51.482;-0.580;2024-01-15T11:36:15;2.15;;;0.70;;
81656;SDS011;71067;51.482;-0.580;2024-01-15T11:38:40;2.38;;;0.60;;
81656;SDS011;71067;51.482;-0.580;2024-01-15T11:41:15;1.20;;;0.50;;
81656;SDS011;71067;51.482;-0.580;2024-01-15T11:43:43;1.67;;;0.60;;
81656;SDS011;71067;51.482;-0.580;2024-01-15T11:46:11;2.03;;;0.88;;
81656;SDS011;71067;51.482;-0.580;2024-01-15T11:48:43;3.25;;;0.80;;
81656;SDS011;71067;51.482;-0.580;2024-01-15T11:51:10;1.88;;;0.68;;
81656;SDS011;71067;51.482;-0.580;2024-01-15T11:53:40;3.33;;;0.80;;
81656;SDS011;71067;51.482;-0.580;2024-01-15T11:56:16;3.20;;;1.30;;
81656;SDS011;71067;51.482;-0.580;2024-01-15T11:58:42;4.88;;;1.30;;
81656;SDS011;71067;51.482;-0.580;2024-01-15T12:01:08;2.30;;;0.80;;
81656;SDS011;71067;51.482;-0.580;2024-01-15T12:03:35;2.20;;;0.77;;
81656;SDS011;71067;51.482;-0.580;2024-01-15T12:06:00;1.73;;;0.80;;
81656;SDS011;71067;51.482;-0.580;2024-01-15T12:08:26;3.22;;;0.90;;
81656;SDS011;71067;51.482;-0.580;2024-01-15T12:10:52;3.97;;;0.82;;
81656;SDS011;71067;51.482;-0.580;2024-01-15T12:13:18;3.17;;;0.80;;
81656;SDS011;71067;51.482;-0.580;2024-01-15T12:15:44;2.22;;;0.82;;
81656;SDS011;71067;51.482;-0.580;2024-01-15T12:18:12;3.33;;;0.70;;
81656;SDS011;71067;51.482;-0.580;2024-01-15T12:20:39;2.42;;;1.00;;
81656;SDS011;71067;51.482;-0.580;2024-01-15T12:23:05;3.63;;;0.90;;
81656;SDS011;71067;51.482;-0.580;2024-01-15T12:25:33;1.85;;;0.80;;
81656;SDS011;71067;51.482;-0.580;2024-01-15T12:27:59;3.38;;;0.70;;
81656;SDS011;71067;51.482;-0.580;2024-01-15T12:30:29;3.35;;;1.10;;
81656;SDS011;71067;51.482;-0.580;2024-01-15T12:32:56;4.90;;;1.13;;
81656;SDS011;71067;51.482;-0.580;2024-01-15T12:35:23;3.10;;;0.98;;
81656;SDS011;71067;51.482;-0.580;2024-01-15T12:37:49;3.17;;;0.80;;
81656;SDS011;71067;51.482;-0.580;2024-01-15T12:40:18;3.47;;;0.85;;
81656;SDS011;71067;51.482;-0.580;2024-01-15T12:42:44;3.40;;;0.60;;
81656;SDS011;71067;51.482;-0.580;2024-01-15T12:45:10;2.08;;;0.75;;
81656;SDS011;71067;51.482;-0.580;2024-01-15T12:47:37;4.05;;;0.88;;
81656;SDS011;71067;51.482;-0.580;2024-01-15T12:50:06;3.00;;;0.82;;
81656;SDS011;71067;51.482;-0.580;2024-01-15T12:52:34;3.70;;;0.60;;
81656;SDS011;71067;51.482;-0.580;2024-01-15T12:55:02;2.42;;;0.63;;
81656;SDS011;71067;51.482;-0.580;2024-01-15T12:57:28;3.42;;;0.60;;
81656;SDS011;71067;51.482;-0.580;2024-01-15T12:59:54;1.83;;;0.70;;
81656;SDS011;71067;51.482;-0.580;2024-01-15T13:02:19;5.18;;;1.17;;
81656;SDS011;71067;51.482;-0.580;2024-01-15T13:04:44;2.58;;;0.93;;
81656;SDS011;71067;51.482;-0.580;2024-01-15T13:07:10;3.63;;;0.70;;
81656;SDS011;71067;51.482;-0.580;2024-01-15T13:09:35;2.28;;;0.65;;
81656;SDS011;71067;51.482;-0.580;2024-01-15T13:12:03;2.00;;;0.57;;
81656;SDS011;71067;51.482;-0.580;2024-01-15T13:14:30;3.75;;;0.70;;
81656;SDS011;71067;51.482;-0.580;2024-01-15T13:16:56;1.73;;;0.82;;
81656;SDS011;71067;51.482;-0.580;2024-01-15T13:19:22;2.38;;;0.73;;
81656;SDS011;71067;51.482;-0.580;2024-01-15T13:21:47;2.55;;;0.70;;
81656;SDS011;71067;51.482;-0.580;2024-01-15T13:24:13;1.50;;;0.70;;
81656;SDS011;71067;51.482;-0.580;2024-01-15T13:26:39;4.32;;;0.80;;
81656;SDS011;71067;51.482;-0.580;2024-01-15T13:29:05;1.27;;;0.60;;
81656;SDS011;71067;51.482;-0.580;2024-01-15T13:31:31;4.07;;;0.90;;
81656;SDS011;71067;51.482;-0.580;2024-01-15T13:33:57;2.63;;;0.73;;
81656;SDS011;71067;51.482;-0.580;2024-01-15T13:36:23;3.22;;;0.65;;
81656;SDS011;71067;51.482;-0.580;2024-01-15T13:38:51;3.17;;;0.80;;
81656;SDS011;71067;51.482;-0.580;2024-01-15T13:41:18;2.20;;;0.60;;
81656;SDS011;71067;51.482;-0.580;2024-01-15T13:43:55;2.53;;;0.70;;
81656;SDS011;71067;51.482;-0.580;2024-01-15T13:46:22;4.93;;;0.90;;
81656;SDS011;71067;51.482;-0.580;2024-01-15T13:48:49;2.30;;;0.73;;
81656;SDS011;71067;51.482;-0.580;2024-01-15T13:51:15;1.33;;;0.50;;
81656;SDS011;71067;51.482;-0.580;2024-01-15T13:53:40;2.30;;;1.17;;
81656;SDS011;71067;51.482;-0.580;2024-01-15T13:56:06;2.28;;;0.75;;
81656;SDS011;71067;51.482;-0.580;2024-01-15T13:58:32;1.80;;;0.70;;
81656;SDS011;71067;51.482;-0.580;2024-01-15T14:00:58;2.00;;;0.70;;
81656;SDS011;71067;51.482;-0.580;2024-01-15T14:03:23;2.70;;;0.68;;
81656;SDS011;71067;51.482;-0.580;2024-01-15T14:05:50;2.63;;;0.93;;
81656;SDS011;71067;51.482;-0.580;2024-01-15T14:08:16;2.28;;;0.70;;
81656;SDS011;71067;51.482;-0.580;2024-01-15T14:10:41;2.47;;;0.57;;
81656;SDS011;71067;51.482;-0.580;2024-01-15T14:13:07;3.17;;;0.77;;
81656;SDS011;71067;51.482;-0.580;2024-01-15T14:15:32;3.13;;;1.07;;
81656;SDS011;71067;51.482;-0.580;2024-01-15T14:17:57;3.43;;;0.67;;
81656;SDS011;71067;51.482;-0.580;2024-01-15T14:20:23;3.50;;;0.65;;
81656;SDS011;71067;51.482;-0.580;2024-01-15T14:22:49;2.75;;;1.10;;
81656;SDS011;71067;51.482;-0.580;2024-01-15T14:25:14;3.78;;;0.85;;
81656;SDS011;71067;51.482;-0.580;2024-01-15T14:27:39;4.40;;;0.90;;
81656;SDS011;71067;51.482;-0.580;2024-01-15T14:30:05;4.57;;;1.30;;
81656;SDS011;71067;51.482;-0.580;2024-01-15T14:32:33;3.53;;;0.90;;